createdAt,value
2018-12-19T00:00:34.476Z,17.70
2018-12-19T00:03:02.008Z,18.77
2018-12-19T00:05:29.531Z,21.52
2018-12-19T00:07:57.062Z,30.72
2018-12-19T00:10:24.575Z,42.78
2018-12-19T00:12:52.113Z,35.98
2018-12-19T00:15:19.636Z,22.43
2018-12-19T00:17:47.168Z,20.97
2018-12-19T00:20:14.810Z,19.25
2018-12-19T00:22:42.585Z,17.23
2018-12-19T00:25:10.281Z,22.67
2018-12-19T00:27:38.079Z,17.23
2018-12-19T00:30:06.192Z,18.47
2018-12-19T00:32:33.803Z,19.57
2018-12-19T00:35:01.315Z,13.60
2018-12-19T00:37:28.885Z,15.20
2018-12-19T00:39:56.405Z,16.73
2018-12-19T00:42:24.017Z,9.73
2018-12-19T00:44:51.528Z,13.17
2018-12-19T00:47:19.039Z,22.73
2018-12-19T00:49:46.557Z,6.47
2018-12-19T00:52:14.070Z,5.77
2018-12-19T00:54:41.567Z,6.90
2018-12-19T00:57:09.068Z,6.17
2018-12-19T00:59:36.588Z,8.97
2018-12-19T01:02:04.536Z,3.67
2018-12-19T01:04:32.052Z,4.83
2018-12-19T01:06:59.574Z,11.93
2018-12-19T01:09:27.086Z,8.93
2018-12-19T01:11:54.623Z,11.40
2018-12-19T01:14:22.205Z,13.30
2018-12-19T01:16:49.723Z,16.97
2018-12-19T01:19:17.556Z,17.90
2018-12-19T01:21:45.091Z,22.90
2018-12-19T01:24:12.614Z,16.90
2018-12-19T01:26:40.778Z,20.73
2018-12-19T01:29:08.296Z,21.00
2018-12-19T01:31:35.819Z,18.20
2018-12-19T01:34:03.350Z,17.97
2018-12-19T01:36:30.950Z,20.60
2018-12-19T01:38:58.519Z,19.13
2018-12-19T01:41:30.551Z,17.47
2018-12-19T01:43:58.093Z,20.07
2018-12-19T01:46:25.622Z,18.97
2018-12-19T01:48:53.197Z,19.07
2018-12-19T01:51:20.987Z,21.63
2018-12-19T01:53:48.810Z,16.87
2018-12-19T01:56:16.379Z,18.97
2018-12-19T01:58:43.892Z,18.53
2018-12-19T02:01:11.524Z,22.55
2018-12-19T02:03:39.048Z,20.00
2018-12-19T02:06:06.548Z,18.53
2018-12-19T02:08:34.066Z,17.50
2018-12-19T02:11:01.574Z,22.13
2018-12-19T02:13:29.106Z,16.17
2018-12-19T02:15:56.624Z,18.87
2018-12-19T02:18:24.166Z,19.50
2018-12-19T02:20:51.699Z,19.85
2018-12-19T02:23:19.290Z,22.47
2018-12-19T02:25:46.804Z,16.50
2018-12-19T02:28:14.334Z,16.17
2018-12-19T02:30:41.985Z,15.10
2018-12-19T02:33:09.496Z,13.63
2018-12-19T02:35:37.115Z,13.60
2018-12-19T02:38:04.653Z,14.93
2018-12-19T02:40:32.163Z,19.43
2018-12-19T02:42:59.709Z,18.75
2018-12-19T02:45:27.217Z,19.50
2018-12-19T02:47:54.736Z,22.07
2018-12-19T02:50:22.271Z,20.07
2018-12-19T02:52:49.812Z,22.33
2018-12-19T02:55:17.317Z,17.00
2018-12-19T02:57:44.858Z,19.90
2018-12-19T03:00:12.370Z,18.52
2018-12-19T03:02:39.912Z,17.70
2018-12-19T03:05:07.449Z,18.53
2018-12-19T03:07:35.042Z,16.60
2018-12-19T03:10:02.615Z,15.17
2018-12-19T03:12:30.171Z,16.63
2018-12-19T03:14:57.691Z,16.20
2018-12-19T03:17:25.203Z,15.93
2018-12-19T03:19:52.794Z,14.53
2018-12-19T03:22:20.313Z,15.13
2018-12-19T03:24:47.841Z,14.65
2018-12-19T03:27:15.351Z,17.37
2018-12-19T03:29:42.881Z,20.08
2018-12-19T03:32:10.469Z,16.70
2018-12-19T03:34:37.993Z,22.23
2018-12-19T03:37:05.508Z,25.30
2018-12-19T03:39:33.035Z,21.10
2018-12-19T03:42:00.548Z,22.43
2018-12-19T03:44:28.139Z,26.77
2018-12-19T03:46:55.766Z,17.73
2018-12-19T03:49:23.347Z,19.70
2018-12-19T03:51:51.204Z,17.50
2018-12-19T03:54:19.200Z,22.13
2018-12-19T03:56:47.296Z,19.37
2018-12-19T03:59:14.830Z,22.93
2018-12-19T04:01:42.350Z,30.20
2018-12-19T04:04:09.895Z,17.30
2018-12-19T04:06:37.465Z,20.63
2018-12-19T04:09:05.934Z,19.07
2018-12-19T04:11:33.471Z,26.50
2018-12-19T04:14:01.026Z,20.17
2018-12-19T04:16:29.475Z,22.47
2018-12-19T04:18:57.002Z,22.20
2018-12-19T04:21:24.528Z,25.70
2018-12-19T04:23:52.118Z,25.50
2018-12-19T04:26:19.650Z,28.27
2018-12-19T04:28:47.175Z,34.10
2018-12-19T04:31:14.698Z,32.28
2018-12-19T04:33:42.221Z,29.20
2018-12-19T04:36:09.850Z,37.33
2018-12-19T04:38:37.743Z,34.50
2018-12-19T04:41:05.264Z,35.53
2018-12-19T04:43:32.793Z,48.80
2018-12-19T04:46:00.308Z,46.57
2018-12-19T04:48:27.852Z,51.90
2018-12-19T04:50:55.375Z,44.23
2018-12-19T04:53:22.911Z,42.00
2018-12-19T04:55:50.447Z,38.70
2018-12-19T04:58:18.017Z,39.90
2018-12-19T05:00:45.626Z,32.27
2018-12-19T05:03:13.239Z,28.47
2018-12-19T05:05:40.775Z,28.12
2018-12-19T05:08:08.308Z,33.27
2018-12-19T05:10:36.144Z,27.40
2018-12-19T05:13:03.729Z,38.30
2018-12-19T05:15:31.269Z,26.40
2018-12-19T05:17:58.808Z,26.00
2018-12-19T05:20:26.323Z,26.63
2018-12-19T05:22:53.921Z,27.57
2018-12-19T05:25:21.473Z,27.60
2018-12-19T05:27:49.092Z,27.40
2018-12-19T05:30:16.627Z,25.03
2018-12-19T05:32:44.154Z,20.70
2018-12-19T05:35:11.670Z,25.33
2018-12-19T05:37:39.463Z,19.07
2018-12-19T05:40:07.576Z,18.53
2018-12-19T05:42:35.199Z,18.43
2018-12-19T05:45:03.137Z,21.93
2018-12-19T05:47:30.830Z,20.93
2018-12-19T05:49:58.402Z,21.87
2018-12-19T05:52:26.511Z,23.30
2018-12-19T05:54:54.288Z,15.10
2018-12-19T05:57:22.089Z,16.57
2018-12-19T05:59:49.608Z,21.90
2018-12-19T06:02:17.140Z,14.90
2018-12-19T06:04:44.670Z,16.60
2018-12-19T06:07:12.213Z,17.40
2018-12-19T06:09:39.841Z,19.80
2018-12-19T06:12:07.410Z,16.37
2018-12-19T06:14:34.944Z,16.33
2018-12-19T06:17:02.456Z,14.20
2018-12-19T06:19:30.002Z,17.10
2018-12-19T06:21:57.517Z,17.40
2018-12-19T06:24:25.124Z,22.20
2018-12-19T06:26:52.623Z,18.40
2018-12-19T06:29:20.136Z,16.00
2018-12-19T06:31:47.673Z,15.73
2018-12-19T06:34:15.282Z,20.70
2018-12-19T06:36:42.802Z,25.83
2018-12-19T06:39:10.520Z,20.43
2018-12-19T06:41:38.035Z,48.73
2018-12-19T06:44:05.568Z,36.70
2018-12-19T06:46:33.084Z,36.50
2018-12-19T06:49:00.604Z,32.90
2018-12-19T06:51:28.133Z,33.53
2018-12-19T06:53:55.672Z,29.97
2018-12-19T06:56:23.174Z,27.83
2018-12-19T06:58:51.032Z,27.10
2018-12-19T07:01:18.570Z,25.70
2018-12-19T07:03:46.165Z,26.53
2018-12-19T07:06:13.705Z,20.03
2018-12-19T07:08:41.545Z,19.37
2018-12-19T07:11:09.471Z,24.33
2018-12-19T07:13:37.001Z,19.20
2018-12-19T07:16:04.531Z,21.50
2018-12-19T07:18:32.065Z,18.53
2018-12-19T07:21:00.163Z,19.00
2018-12-19T07:23:27.692Z,20.97
2018-12-19T07:25:55.213Z,22.70
2018-12-19T07:28:22.733Z,21.90
2018-12-19T07:30:50.253Z,19.63
2018-12-19T07:33:17.964Z,21.93
2018-12-19T07:35:45.477Z,22.37
2018-12-19T07:38:13.089Z,21.20
2018-12-19T07:40:45.697Z,22.47
2018-12-19T07:43:10.267Z,17.93
2018-12-19T07:45:37.780Z,17.20
2018-12-19T07:48:05.283Z,16.43
2018-12-19T07:50:32.820Z,21.43
2018-12-19T07:53:00.555Z,19.93
2018-12-19T07:55:30.038Z,19.13
2018-12-19T07:57:57.906Z,20.80
2018-12-19T08:00:27.629Z,21.03
2018-12-19T08:02:55.082Z,22.90
2018-12-19T08:05:26.142Z,18.57
2018-12-19T08:07:52.104Z,19.00
2018-12-19T08:10:19.720Z,18.60
2018-12-19T08:12:47.234Z,18.00
2018-12-19T08:15:14.742Z,19.93
2018-12-19T08:17:42.326Z,17.73
2018-12-19T08:20:09.843Z,18.87
2018-12-19T08:22:37.351Z,20.07
2018-12-19T08:25:05.607Z,18.92
2018-12-19T08:27:33.152Z,22.30
2018-12-19T08:30:00.678Z,15.13
2018-12-19T08:32:28.314Z,20.23
2018-12-19T08:34:55.822Z,17.40
2018-12-19T08:37:23.326Z,18.47
2018-12-19T08:39:50.855Z,16.70
2018-12-19T08:42:18.370Z,19.60
2018-12-19T08:44:45.884Z,11.60
2018-12-19T08:47:13.400Z,14.30
2018-12-19T08:49:40.911Z,15.33
2018-12-19T08:52:08.430Z,11.03
2018-12-19T08:54:35.992Z,14.43
2018-12-19T08:57:03.521Z,12.97
2018-12-19T08:59:31.120Z,12.93
2018-12-19T09:01:58.691Z,10.80
2018-12-19T09:04:26.199Z,11.90
2018-12-19T09:06:53.713Z,9.83
2018-12-19T09:12:14.646Z,12.20
2018-12-19T09:14:43.124Z,10.83
2018-12-19T09:17:12.137Z,12.40
2018-12-19T09:19:39.731Z,10.57
2018-12-19T09:22:07.257Z,13.10
2018-12-19T09:24:34.764Z,12.90
2018-12-19T09:27:02.370Z,17.13
2018-12-19T09:29:29.938Z,14.33
2018-12-19T09:31:57.449Z,12.77
2018-12-19T09:34:24.961Z,11.47
2018-12-19T09:36:52.477Z,23.40
2018-12-19T09:39:20.296Z,19.47
2018-12-19T09:41:48.085Z,13.53
2018-12-19T09:44:15.698Z,15.67
2018-12-19T09:46:43.208Z,9.40
2018-12-19T09:49:12.466Z,9.77
2018-12-19T09:51:40.264Z,12.07
2018-12-19T09:54:07.780Z,9.60
2018-12-19T09:56:35.286Z,11.30
2018-12-19T09:59:03.068Z,12.50
2018-12-19T10:01:30.574Z,13.03
2018-12-19T10:03:58.792Z,9.07
2018-12-19T10:06:26.574Z,8.23
2018-12-19T10:08:54.076Z,8.10
2018-12-19T10:11:21.580Z,14.70
2018-12-19T10:13:49.099Z,10.87
2018-12-19T10:16:16.597Z,8.83
2018-12-19T10:18:44.126Z,13.10
2018-12-19T10:21:11.650Z,15.90
2018-12-19T10:23:39.169Z,10.97
2018-12-19T10:26:12.985Z,8.00
2018-12-19T10:28:40.595Z,7.83
2018-12-19T10:31:08.105Z,9.83
2018-12-19T10:33:35.669Z,10.90
2018-12-19T10:36:03.274Z,11.40
2018-12-19T10:38:30.784Z,9.50
2018-12-19T10:40:58.302Z,13.03
2018-12-19T10:43:25.802Z,10.30
2018-12-19T10:45:53.305Z,14.40
2018-12-19T10:48:20.818Z,12.30
2018-12-19T10:50:48.324Z,13.50
2018-12-19T10:53:15.836Z,18.00
2018-12-19T10:55:43.347Z,17.93
2018-12-19T10:58:10.867Z,19.00
2018-12-19T11:00:44.152Z,22.17
2018-12-19T11:03:11.690Z,20.60
2018-12-19T11:05:39.224Z,20.30
2018-12-19T11:08:06.740Z,17.80
2018-12-19T11:10:34.255Z,16.33
2018-12-19T11:13:01.845Z,16.37
2018-12-19T11:15:29.541Z,18.77
2018-12-19T11:17:57.105Z,16.90
2018-12-19T11:20:24.625Z,21.77
2018-12-19T11:22:52.170Z,19.37
2018-12-19T11:25:19.753Z,13.53
2018-12-19T11:27:47.277Z,12.47
2018-12-19T11:30:14.810Z,11.53
2018-12-19T11:32:42.307Z,11.13
2018-12-19T11:35:09.923Z,10.07
2018-12-19T11:37:37.520Z,13.07
2018-12-19T11:40:07.338Z,12.90
2018-12-19T11:42:34.850Z,14.23
2018-12-19T11:45:02.452Z,12.70
2018-12-19T11:47:29.980Z,14.33
2018-12-19T11:49:57.604Z,12.83
2018-12-19T11:52:25.164Z,10.27
2018-12-19T11:54:52.668Z,13.10
2018-12-19T11:57:20.178Z,18.10
2018-12-19T11:59:47.760Z,13.77
2018-12-19T12:02:15.396Z,16.73
2018-12-19T12:04:42.920Z,20.10
2018-12-19T12:07:11.108Z,16.30
2018-12-19T12:09:38.636Z,23.30
2018-12-19T12:12:06.191Z,19.33
2018-12-19T12:14:33.697Z,23.90
2018-12-19T12:17:01.220Z,22.60
2018-12-19T12:19:28.736Z,24.13
2018-12-19T12:21:56.262Z,25.10
2018-12-19T12:24:23.789Z,26.83
2018-12-19T12:26:51.684Z,29.40
2018-12-19T12:29:19.254Z,29.80
2018-12-19T12:31:46.772Z,21.67
2018-12-19T12:34:14.313Z,29.90
2018-12-19T12:36:41.852Z,19.43
2018-12-19T12:39:09.412Z,20.10
2018-12-19T12:41:36.942Z,22.50
2018-12-19T12:44:04.632Z,18.90
2018-12-19T12:46:32.196Z,20.67
2018-12-19T12:48:59.791Z,18.83
2018-12-19T12:51:27.315Z,20.50
2018-12-19T12:53:54.837Z,17.17
2018-12-19T12:56:22.357Z,20.43
2018-12-19T12:58:49.881Z,18.80
2018-12-19T13:01:17.393Z,16.40
2018-12-19T13:03:44.907Z,15.90
2018-12-19T13:06:12.511Z,16.50
2018-12-19T13:08:40.028Z,14.23
2018-12-19T13:11:07.620Z,14.80
2018-12-19T13:13:35.209Z,12.40
2018-12-19T13:16:02.989Z,13.30
2018-12-19T13:18:30.536Z,11.27
2018-12-19T13:20:58.131Z,14.67
2018-12-19T13:23:26.873Z,21.03
2018-12-19T13:25:54.517Z,19.80
2018-12-19T13:28:22.040Z,20.10
2018-12-19T13:30:49.580Z,18.87
2018-12-19T13:33:17.259Z,33.60
2018-12-19T13:35:44.800Z,59.00
2018-12-19T13:38:12.321Z,104.10
2018-12-19T13:40:39.868Z,53.63
2018-12-19T13:43:07.387Z,39.73
2018-12-19T13:45:34.904Z,51.37
2018-12-19T13:48:02.421Z,30.20
2018-12-19T13:50:29.956Z,32.60
2018-12-19T13:52:57.464Z,28.27
2018-12-19T13:55:24.970Z,33.77
2018-12-19T13:57:52.698Z,27.70
2018-12-19T14:00:21.340Z,32.40
2018-12-19T14:02:48.872Z,30.03
2018-12-19T14:05:16.385Z,35.30
2018-12-19T14:07:43.889Z,14.87
2018-12-19T14:10:11.416Z,21.13
2018-12-19T14:12:40.345Z,27.33
2018-12-19T14:15:08.794Z,25.27
2018-12-19T14:17:36.299Z,27.63
2018-12-19T14:20:05.642Z,40.47
2018-12-19T14:22:33.831Z,56.43
2018-12-19T14:25:01.345Z,54.63
2018-12-19T14:27:28.878Z,228.67
2018-12-19T14:29:56.390Z,341.00
2018-12-19T14:32:23.905Z,111.20
2018-12-19T14:34:51.800Z,171.27
2018-12-19T14:37:19.327Z,70.40
2018-12-19T14:39:46.869Z,36.87
2018-12-19T14:42:19.015Z,24.27
2018-12-19T14:44:43.995Z,18.63
2018-12-19T14:47:11.511Z,33.43
2018-12-19T14:49:39.013Z,24.87
2018-12-19T14:52:06.543Z,33.63
2018-12-19T14:54:34.257Z,38.43
2018-12-19T14:57:01.797Z,31.27
2018-12-19T14:59:29.306Z,23.37
2018-12-19T15:01:56.858Z,23.50
2018-12-19T15:04:24.381Z,17.23
2018-12-19T15:06:51.923Z,14.70
2018-12-19T15:09:19.449Z,15.70
2018-12-19T15:11:46.959Z,14.33
2018-12-19T15:14:14.482Z,16.07
2018-12-19T15:16:42.008Z,13.77
2018-12-19T15:19:09.802Z,13.70
2018-12-19T15:21:37.349Z,19.63
2018-12-19T15:24:04.869Z,35.90
2018-12-19T15:26:32.386Z,30.23
2018-12-19T15:28:59.908Z,36.70
2018-12-19T15:31:27.454Z,70.77
2018-12-19T15:33:54.986Z,55.73
2018-12-19T15:36:22.864Z,55.80
2018-12-19T15:38:50.623Z,36.97
2018-12-19T15:41:18.137Z,18.83
2018-12-19T15:43:45.649Z,20.63
2018-12-19T15:46:13.217Z,23.37
2018-12-19T15:48:40.731Z,21.50
2018-12-19T15:51:08.348Z,18.43
2018-12-19T15:53:35.894Z,22.53
2018-12-19T15:56:03.445Z,18.57
2018-12-19T15:58:30.972Z,15.73
2018-12-19T16:00:58.519Z,15.70
2018-12-19T16:03:26.068Z,13.97
2018-12-19T16:05:53.594Z,11.43
2018-12-19T16:08:21.108Z,11.00
2018-12-19T16:10:48.638Z,11.97
2018-12-19T16:13:16.151Z,11.50
2018-12-19T16:15:44.536Z,15.40
2018-12-19T16:18:12.242Z,15.40
2018-12-19T16:20:39.775Z,13.13
2018-12-19T16:23:07.305Z,17.50
2018-12-19T16:25:34.867Z,19.90
2018-12-19T16:28:02.398Z,15.80
2018-12-19T16:30:29.904Z,13.20
2018-12-19T16:32:57.460Z,13.00
2018-12-19T16:35:24.976Z,12.20
2018-12-19T16:37:52.491Z,24.33
2018-12-19T16:40:20.001Z,28.23
2018-12-19T16:42:47.537Z,37.23
2018-12-19T16:45:15.083Z,32.07
2018-12-19T16:47:42.663Z,23.57
2018-12-19T16:50:10.311Z,23.43
2018-12-19T16:52:37.843Z,19.40
2018-12-19T16:55:05.569Z,11.68
2018-12-19T16:57:33.413Z,24.03
2018-12-19T17:00:00.940Z,39.07
2018-12-19T17:02:28.452Z,26.50
2018-12-19T17:04:55.973Z,18.50
2018-12-19T17:07:23.803Z,10.73
2018-12-19T17:09:51.340Z,13.83
2018-12-19T17:12:18.861Z,11.80
2018-12-19T17:14:46.428Z,11.57
2018-12-19T17:17:13.967Z,12.67
2018-12-19T17:19:41.517Z,30.60
2018-12-19T17:22:09.126Z,24.63
2018-12-19T17:24:39.788Z,20.97
2018-12-19T17:27:07.416Z,20.23
2018-12-19T17:29:35.028Z,35.77
2018-12-19T17:32:02.615Z,37.70
2018-12-19T17:34:30.126Z,23.80
2018-12-19T17:36:57.941Z,17.40
2018-12-19T17:39:25.472Z,17.80
2018-12-19T17:41:52.999Z,16.47
2018-12-19T17:44:20.519Z,15.97
2018-12-19T17:46:48.040Z,16.57
2018-12-19T17:49:15.576Z,19.93
2018-12-19T17:51:43.109Z,17.37
2018-12-19T17:54:10.629Z,21.30
2018-12-19T17:56:38.177Z,22.13
2018-12-19T17:59:05.916Z,21.93
2018-12-19T18:01:33.471Z,20.20
2018-12-19T18:04:00.993Z,22.83
2018-12-19T18:06:28.537Z,26.60
2018-12-19T18:08:56.075Z,24.97
2018-12-19T18:11:23.683Z,22.90
2018-12-19T18:13:51.500Z,25.10
2018-12-19T18:16:19.029Z,20.57
2018-12-19T18:18:46.557Z,203.27
2018-12-19T18:21:14.180Z,190.07
2018-12-19T18:23:41.726Z,53.07
2018-12-19T18:26:09.249Z,58.03
2018-12-19T18:28:36.893Z,54.33
2018-12-19T18:31:04.454Z,45.83
2018-12-19T18:33:31.962Z,57.57
2018-12-19T18:35:59.702Z,43.57
2018-12-19T18:38:27.253Z,47.87
2018-12-19T18:40:54.787Z,38.50
2018-12-19T18:43:22.483Z,32.57
2018-12-19T18:45:50.103Z,35.10
2018-12-19T18:48:17.942Z,31.43
2018-12-19T18:50:45.738Z,31.93
2018-12-19T18:53:13.345Z,28.90
2018-12-19T18:55:41.249Z,33.97
2018-12-19T18:58:08.987Z,22.90
2018-12-19T19:00:36.795Z,25.33
2018-12-19T19:03:04.394Z,29.07
2018-12-19T19:05:31.989Z,26.00
2018-12-19T19:07:59.612Z,23.17
2018-12-19T19:10:27.133Z,22.40
2018-12-19T19:12:54.685Z,24.70
2018-12-19T19:15:22.203Z,32.03
2018-12-19T19:17:49.805Z,36.00
2018-12-19T19:20:17.393Z,28.90
2018-12-19T19:22:45.015Z,27.40
2018-12-19T19:25:12.619Z,24.77
2018-12-19T19:27:40.160Z,24.77
2018-12-19T19:30:08.741Z,23.57
2018-12-19T19:32:36.289Z,25.63
2018-12-19T19:35:04.442Z,21.80
2018-12-19T19:37:32.138Z,49.13
2018-12-19T19:39:59.668Z,76.27
2018-12-19T19:42:27.178Z,106.83
2018-12-19T19:44:54.773Z,63.97
2018-12-19T19:47:22.290Z,65.80
2018-12-19T19:49:49.810Z,47.70
2018-12-19T19:52:17.328Z,63.40
2018-12-19T19:54:44.895Z,64.97
2018-12-19T19:57:12.415Z,51.03
2018-12-19T19:59:40.138Z,72.60
2018-12-19T20:02:07.782Z,86.10
2018-12-19T20:04:35.300Z,62.53
2018-12-19T20:07:02.854Z,47.60
2018-12-19T20:09:30.382Z,29.77
2018-12-19T20:11:58.311Z,24.27
2018-12-19T20:14:25.935Z,27.47
2018-12-19T20:16:59.348Z,32.37
2018-12-19T20:19:26.909Z,34.13
2018-12-19T20:21:54.487Z,30.87
2018-12-19T20:24:22.054Z,38.30
2018-12-19T20:26:49.586Z,29.50
2018-12-19T20:29:17.120Z,30.83
2018-12-19T20:31:44.667Z,31.10
2018-12-19T20:34:12.189Z,27.27
2018-12-19T20:36:39.720Z,22.70
2018-12-19T20:39:07.748Z,21.30
2018-12-19T20:41:35.288Z,23.77
2018-12-19T20:44:02.805Z,16.83
2018-12-19T20:46:30.756Z,22.40
2018-12-19T20:48:58.280Z,18.03
2018-12-19T20:51:25.800Z,24.93
2018-12-19T20:53:53.340Z,20.40
2018-12-19T20:56:20.995Z,18.53
2018-12-19T20:58:48.642Z,21.20
2018-12-19T21:01:16.361Z,20.70
2018-12-19T21:03:45.255Z,20.50
2018-12-19T21:06:12.953Z,24.47
2018-12-19T21:08:40.451Z,19.63
2018-12-19T21:11:08.016Z,20.73
2018-12-19T21:13:35.747Z,21.97
2018-12-19T21:16:03.368Z,15.50
2018-12-19T21:18:36.609Z,17.50
2018-12-19T21:21:04.148Z,17.30
2018-12-19T21:26:05.803Z,20.33
2018-12-19T21:28:33.411Z,16.83
2018-12-19T21:31:01.038Z,18.13
2018-12-19T21:33:28.858Z,21.03
2018-12-19T21:35:56.403Z,17.57
2018-12-19T21:38:23.932Z,18.60
2018-12-19T21:40:51.513Z,19.80
2018-12-19T21:43:19.167Z,18.23
2018-12-19T21:45:51.706Z,17.97
2018-12-19T21:48:16.230Z,17.90
2018-12-19T21:50:43.775Z,16.30
2018-12-19T21:53:11.369Z,20.73
2018-12-19T21:55:38.893Z,17.20
2018-12-19T21:58:06.867Z,21.33
2018-12-19T22:00:35.362Z,20.30
2018-12-19T22:03:05.313Z,26.73
2018-12-19T22:05:33.246Z,21.03
2018-12-19T22:08:00.851Z,22.90
2018-12-19T22:10:28.470Z,21.30
2018-12-19T22:12:56.004Z,22.20
2018-12-19T22:15:23.588Z,22.63
2018-12-19T22:17:53.154Z,17.07
2018-12-19T22:20:20.669Z,19.23
2018-12-19T22:22:48.453Z,20.47
2018-12-19T22:25:16.164Z,19.30
2018-12-19T22:27:43.774Z,22.53
2018-12-19T22:30:11.345Z,25.67
2018-12-19T22:32:38.875Z,30.90
2018-12-19T22:35:06.465Z,23.23
2018-12-19T22:37:33.982Z,21.90
2018-12-19T22:40:01.521Z,27.33
2018-12-19T22:42:29.227Z,28.80
2018-12-19T22:44:56.850Z,23.90
2018-12-19T22:47:24.479Z,23.90
2018-12-19T22:49:52.018Z,22.90
2018-12-19T22:52:19.618Z,22.10
2018-12-19T22:54:47.634Z,21.60
2018-12-19T22:57:15.259Z,22.23
2018-12-19T22:59:42.783Z,27.43
2018-12-19T23:02:16.073Z,28.27
2018-12-19T23:04:43.686Z,23.70
2018-12-19T23:07:11.541Z,24.73
2018-12-19T23:09:39.164Z,25.00
2018-12-19T23:12:06.837Z,28.73
2018-12-19T23:14:34.461Z,25.20
2018-12-19T23:17:04.281Z,21.53
2018-12-19T23:19:31.893Z,22.87
2018-12-19T23:21:59.662Z,18.33
2018-12-19T23:24:27.185Z,17.30
2018-12-19T23:26:54.706Z,15.80
2018-12-19T23:29:22.248Z,15.27
2018-12-19T23:31:49.845Z,15.03
2018-12-19T23:34:17.557Z,17.93
2018-12-19T23:36:45.278Z,14.53
2018-12-19T23:39:12.843Z,15.53
2018-12-19T23:41:40.550Z,16.60
2018-12-19T23:44:08.118Z,19.10
2018-12-19T23:46:35.740Z,16.97
2018-12-19T23:49:03.389Z,15.17
2018-12-19T23:51:31.049Z,23.30
2018-12-19T23:53:58.868Z,15.60
2018-12-19T23:56:26.535Z,19.70
2018-12-19T23:58:54.223Z,19.83
